sensor_id;sensor_type;location;lat;lon;timestamp;P1;durP1;ratioP1;P2;durP2;ratioP2
23472;SDS011;11909;52.516;13.564;2023-02-14T00:00:51;26.38;;;15.82;;
23472;SDS011;11909;52.516;13.564;2023-02-14T00:03:18;27.88;;;16.23;;
23472;SDS011;11909;52.516;13.564;2023-02-14T00:05:47;33.10;;;17.90;;
23472;SDS011;11909;52.516;13.564;2023-02-14T00:08:15;26.50;;;15.65;;
23472;SDS011;11909;52.516;13.564;2023-02-14T00:10:43;29.67;;;17.55;;
23472;SDS011;11909;52.516;13.564;2023-02-14T00:13:10;31.40;;;17.33;;
23472;SDS011;11909;52.516;13.564;2023-02-14T00:15:38;30.08;;;17.00;;
23472;SDS011;11909;52.516;13.564;2023-02-14T00:18:05;28.65;;;16.67;;
23472;SDS011;11909;52.516;13.564;2023-02-14T00:20:32;28.40;;;16.75;;
23472;SDS011;11909;52.516;13.564;2023-02-14T00:23:03;27.15;;;15.48;;
23472;SDS011;11909;52.516;13.564;2023-02-14T00:25:32;30.25;;;16.00;;
23472;SDS011;11909;52.516;13.564;2023-02-14T00:28:00;26.52;;;16.05;;
23472;SDS011;11909;52.516;13.564;2023-02-14T00:30:27;28.67;;;16.63;;
23472;SDS011;11909;52.516;13.564;2023-02-14T00:32:55;30.13;;;17.27;;
23472;SDS011;11909;52.516;13.564;2023-02-14T00:35:23;28.23;;;17.00;;
23472;SDS011;11909;52.516;13.564;2023-02-14T00:37:50;31.83;;;17.42;;
23472;SDS011;11909;52.516;13.564;2023-02-14T00:40:20;29.90;;;17.10;;
23472;SDS011;11909;52.516;13.564;2023-02-14T00:42:47;28.77;;;16.45;;
23472;SDS011;11909;52.516;13.564;2023-02-14T00:45:15;28.58;;;17.13;;
23472;SDS011;11909;52.516;13.564;2023-02-14T00:47:44;30.58;;;16.33;;
23472;SDS011;11909;52.516;13.564;2023-02-14T00:50:11;30.77;;;16.10;;
23472;SDS011;11909;52.516;13.564;2023-02-14T00:52:39;30.40;;;16.95;;
23472;SDS011;11909;52.516;13.564;2023-02-14T00:55:07;28.70;;;16.52;;
23472;SDS011;11909;52.516;13.564;2023-02-14T00:57:36;27.90;;;16.30;;
23472;SDS011;11909;52.516;13.564;2023-02-14T01:00:04;27.88;;;16.25;;
23472;SDS011;11909;52.516;13.564;2023-02-14T01:02:32;31.88;;;17.83;;
23472;SDS011;11909;52.516;13.564;2023-02-14T01:05:00;30.40;;;17.27;;
23472;SDS011;11909;52.516;13.564;2023-02-14T01:07:28;33.05;;;18.33;;
23472;SDS011;11909;52.516;13.564;2023-02-14T01:09:55;27.73;;;15.70;;
23472;SDS011;11909;52.516;13.564;2023-02-14T01:12:23;27.33;;;16.38;;
23472;SDS011;11909;52.516;13.564;2023-02-14T01:14:52;27.38;;;15.13;;
23472;SDS011;11909;52.516;13.564;2023-02-14T01:17:20;24.85;;;15.35;;
23472;SDS011;11909;52.516;13.564;2023-02-14T01:19:50;27.75;;;15.93;;
23472;SDS011;11909;52.516;13.564;2023-02-14T01:22:18;27.47;;;16.20;;
23472;SDS011;11909;52.516;13.564;2023-02-14T01:24:46;28.95;;;16.75;;
23472;SDS011;11909;52.516;13.564;2023-02-14T01:27:13;27.45;;;16.27;;
23472;SDS011;11909;52.516;13.564;2023-02-14T01:29:41;25.02;;;15.85;;
23472;SDS011;11909;52.516;13.564;2023-02-14T01:32:10;32.25;;;15.88;;
23472;SDS011;11909;52.516;13.564;2023-02-14T01:34:38;27.83;;;15.75;;
23472;SDS011;11909;52.516;13.564;2023-02-14T01:37:06;32.20;;;17.33;;
23472;SDS011;11909;52.516;13.564;2023-02-14T01:39:33;23.40;;;15.10;;
23472;SDS011;11909;52.516;13.564;2023-02-14T01:42:01;30.23;;;17.08;;
23472;SDS011;11909;52.516;13.564;2023-02-14T01:47:24;27.17;;;16.15;;
23472;SDS011;11909;52.516;13.564;2023-02-14T01:49:56;29.15;;;16.50;;
23472;SDS011;11909;52.516;13.564;2023-02-14T01:52:28;26.65;;;16.10;;
23472;SDS011;11909;52.516;13.564;2023-02-14T01:55:01;31.70;;;16.15;;
23472;SDS011;11909;52.516;13.564;2023-02-14T01:57:32;31.63;;;17.13;;
23472;SDS011;11909;52.516;13.564;2023-02-14T02:00:05;28.13;;;16.48;;
23472;SDS011;11909;52.516;13.564;2023-02-14T02:02:53;30.67;;;16.73;;
23472;SDS011;11909;52.516;13.564;2023-02-14T02:05:21;30.05;;;17.60;;
23472;SDS011;11909;52.516;13.564;2023-02-14T02:07:50;28.70;;;16.67;;
23472;SDS011;11909;52.516;13.564;2023-02-14T02:10:18;33.10;;;17.17;;
23472;SDS011;11909;52.516;13.564;2023-02-14T02:12:47;25.13;;;15.30;;
23472;SDS011;11909;52.516;13.564;2023-02-14T02:15:16;27.17;;;16.13;;
23472;SDS011;11909;52.516;13.564;2023-02-14T02:17:47;26.33;;;16.08;;
23472;SDS011;11909;52.516;13.564;2023-02-14T02:20:44;26.98;;;15.35;;
23472;SDS011;11909;52.516;13.564;2023-02-14T02:29:56;28.23;;;16.48;;
23472;SDS011;11909;52.516;13.564;2023-02-14T02:35:58;30.10;;;15.90;;
23472;SDS011;11909;52.516;13.564;2023-02-14T02:41:39;26.85;;;15.65;;
23472;SDS011;11909;52.516;13.564;2023-02-14T02:44:15;26.33;;;14.80;;
23472;SDS011;11909;52.516;13.564;2023-02-14T02:46:46;27.92;;;15.82;;
23472;SDS011;11909;52.516;13.564;2023-02-14T02:49:23;24.33;;;14.55;;
23472;SDS011;11909;52.516;13.564;2023-02-14T02:52:18;31.95;;;17.00;;
23472;SDS011;11909;52.516;13.564;2023-02-14T02:55:11;27.63;;;15.75;;
23472;SDS011;11909;52.516;13.564;2023-02-14T02:57:42;28.45;;;15.27;;
23472;SDS011;11909;52.516;13.564;2023-02-14T03:00:11;31.45;;;16.23;;
23472;SDS011;11909;52.516;13.564;2023-02-14T03:02:40;26.77;;;14.73;;
23472;SDS011;11909;52.516;13.564;2023-02-14T03:05:31;27.00;;;15.25;;
23472;SDS011;11909;52.516;13.564;2023-02-14T03:08:03;29.90;;;16.48;;
23472;SDS011;11909;52.516;13.564;2023-02-14T03:10:32;28.77;;;16.67;;
23472;SDS011;11909;52.516;13.564;2023-02-14T03:13:13;27.65;;;15.90;;
23472;SDS011;11909;52.516;13.564;2023-02-14T03:16:09;30.48;;;17.02;;
23472;SDS011;11909;52.516;13.564;2023-02-14T03:18:56;24.50;;;14.32;;
23472;SDS011;11909;52.516;13.564;2023-02-14T03:21:41;26.50;;;15.38;;
23472;SDS011;11909;52.516;13.564;2023-02-14T03:24:15;23.20;;;13.55;;
23472;SDS011;11909;52.516;13.564;2023-02-14T03:26:48;31.10;;;16.60;;
23472;SDS011;11909;52.516;13.564;2023-02-14T03:29:30;25.73;;;15.27;;
23472;SDS011;11909;52.516;13.564;2023-02-14T03:32:10;27.05;;;16.13;;
23472;SDS011;11909;52.516;13.564;2023-02-14T03:34:45;24.70;;;14.73;;
23472;SDS011;11909;52.516;13.564;2023-02-14T03:37:20;28.58;;;15.50;;
23472;SDS011;11909;52.516;13.564;2023-02-14T03:39:57;23.08;;;14.07;;
23472;SDS011;11909;52.516;13.564;2023-02-14T03:42:31;24.77;;;14.20;;
23472;SDS011;11909;52.516;13.564;2023-02-14T03:45:02;28.83;;;16.42;;
23472;SDS011;11909;52.516;13.564;2023-02-14T03:47:34;26.67;;;16.40;;
23472;SDS011;11909;52.516;13.564;2023-02-14T03:50:06;28.35;;;16.27;;
23472;SDS011;11909;52.516;13.564;2023-02-14T03:52:37;28.13;;;16.05;;
23472;SDS011;11909;52.516;13.564;2023-02-14T03:55:07;28.65;;;16.25;;
23472;SDS011;11909;52.516;13.564;2023-02-14T03:57:37;27.67;;;16.07;;
23472;SDS011;11909;52.516;13.564;2023-02-14T04:00:14;31.10;;;16.60;;
23472;SDS011;11909;52.516;13.564;2023-02-14T04:02:44;28.17;;;16.27;;
23472;SDS011;11909;52.516;13.564;2023-02-14T04:05:16;36.60;;;19.13;;
23472;SDS011;11909;52.516;13.564;2023-02-14T04:07:46;28.33;;;16.10;;
23472;SDS011;11909;52.516;13.564;2023-02-14T04:10:18;28.60;;;15.48;;
23472;SDS011;11909;52.516;13.564;2023-02-14T04:12:46;28.05;;;15.63;;
23472;SDS011;11909;52.516;13.564;2023-02-14T04:15:15;27.73;;;15.43;;
23472;SDS011;11909;52.516;13.564;2023-02-14T04:17:43;29.13;;;15.88;;
23472;SDS011;11909;52.516;13.564;2023-02-14T04:20:29;29.77;;;16.58;;
23472;SDS011;11909;52.516;13.564;2023-02-14T04:22:56;26.25;;;15.18;;
23472;SDS011;11909;52.516;13.564;2023-02-14T04:25:25;28.23;;;16.25;;
23472;SDS011;11909;52.516;13.564;2023-02-14T04:27:53;27.65;;;15.48;;
23472;SDS011;11909;52.516;13.564;2023-02-14T04:30:21;28.40;;;15.88;;
23472;SDS011;11909;52.516;13.564;2023-02-14T04:32:49;26.67;;;15.43;;
23472;SDS011;11909;52.516;13.564;2023-02-14T04:35:17;22.98;;;15.10;;
23472;SDS011;11909;52.516;13.564;2023-02-14T04:37:44;26.75;;;15.65;;
23472;SDS011;11909;52.516;13.564;2023-02-14T04:40:12;26.50;;;16.08;;
23472;SDS011;11909;52.516;13.564;2023-02-14T04:42:44;30.80;;;17.08;;
23472;SDS011;11909;52.516;13.564;2023-02-14T04:45:12;30.70;;;16.95;;
23472;SDS011;11909;52.516;13.564;2023-02-14T04:47:40;26.48;;;14.68;;
23472;SDS011;11909;52.516;13.564;2023-02-14T04:50:08;28.58;;;15.63;;
23472;SDS011;11909;52.516;13.564;2023-02-14T04:52:36;26.02;;;15.50;;
23472;SDS011;11909;52.516;13.564;2023-02-14T04:55:04;29.73;;;16.38;;
23472;SDS011;11909;52.516;13.564;2023-02-14T04:57:33;28.38;;;15.57;;
23472;SDS011;11909;52.516;13.564;2023-02-14T05:00:02;27.85;;;16.40;;
23472;SDS011;11909;52.516;13.564;2023-02-14T05:02:30;23.63;;;14.43;;
23472;SDS011;11909;52.516;13.564;2023-02-14T05:04:58;29.88;;;16.13;;
23472;SDS011;11909;52.516;13.564;2023-02-14T05:07:25;29.17;;;15.77;;
23472;SDS011;11909;52.516;13.564;2023-02-14T05:09:54;27.65;;;14.93;;
23472;SDS011;11909;52.516;13.564;2023-02-14T05:12:21;29.13;;;16.15;;
23472;SDS011;11909;52.516;13.564;2023-02-14T05:14:49;26.80;;;14.73;;
23472;SDS011;11909;52.516;13.564;2023-02-14T05:17:18;30.13;;;17.08;;
23472;SDS011;11909;52.516;13.564;2023-02-14T05:19:46;28.60;;;16.40;;
23472;SDS011;11909;52.516;13.564;2023-02-14T05:22:14;25.85;;;15.35;;
23472;SDS011;11909;52.516;13.564;2023-02-14T05:24:43;26.77;;;15.65;;
23472;SDS011;11909;52.516;13.564;2023-02-14T05:27:11;27.88;;;14.95;;
23472;SDS011;11909;52.516;13.564;2023-02-14T05:29:39;30.20;;;16.65;;
23472;SDS011;11909;52.516;13.564;2023-02-14T05:32:06;31.17;;;16.55;;
23472;SDS011;11909;52.516;13.564;2023-02-14T05:34:36;27.50;;;16.20;;
23472;SDS011;11909;52.516;13.564;2023-02-14T05:37:03;28.17;;;15.45;;
23472;SDS011;11909;52.516;13.564;2023-02-14T05:39:31;26.30;;;15.18;;
23472;SDS011;11909;52.516;13.564;2023-02-14T05:41:59;27.65;;;15.20;;
23472;SDS011;11909;52.516;13.564;2023-02-14T05:44:26;26.65;;;15.05;;
23472;SDS011;11909;52.516;13.564;2023-02-14T05:46:54;21.70;;;13.65;;
23472;SDS011;11909;52.516;13.564;2023-02-14T05:49:22;20.70;;;14.07;;
23472;SDS011;11909;52.516;13.564;2023-02-14T05:51:51;25.23;;;15.18;;
23472;SDS011;11909;52.516;13.564;2023-02-14T05:54:18;23.13;;;13.88;;
23472;SDS011;11909;52.516;13.564;2023-02-14T05:56:46;31.58;;;15.05;;
23472;SDS011;11909;52.516;13.564;2023-02-14T05:59:14;26.35;;;15.07;;
23472;SDS011;11909;52.516;13.564;2023-02-14T06:01:42;25.98;;;14.45;;
23472;SDS011;11909;52.516;13.564;2023-02-14T06:04:09;23.55;;;13.82;;
23472;SDS011;11909;52.516;13.564;2023-02-14T06:06:37;23.77;;;13.35;;
23472;SDS011;11909;52.516;13.564;2023-02-14T06:09:06;27.40;;;14.27;;
23472;SDS011;11909;52.516;13.564;2023-02-14T06:11:34;24.75;;;13.57;;
23472;SDS011;11909;52.516;13.564;2023-02-14T06:14:01;26.13;;;14.35;;
23472;SDS011;11909;52.516;13.564;2023-02-14T06:16:29;26.00;;;14.55;;
23472;SDS011;11909;52.516;13.564;2023-02-14T06:18:57;26.17;;;14.63;;
23472;SDS011;11909;52.516;13.564;2023-02-14T06:21:25;25.10;;;13.75;;
23472;SDS011;11909;52.516;13.564;2023-02-14T06:23:52;26.65;;;14.20;;
23472;SDS011;11909;52.516;13.564;2023-02-14T06:26:21;24.63;;;13.18;;
23472;SDS011;11909;52.516;13.564;2023-02-14T06:28:53;29.25;;;15.05;;
23472;SDS011;11909;52.516;13.564;2023-02-14T06:31:21;22.90;;;14.43;;
23472;SDS011;11909;52.516;13.564;2023-02-14T06:33:50;27.55;;;14.48;;
23472;SDS011;11909;52.516;13.564;2023-02-14T06:36:19;27.08;;;13.98;;
23472;SDS011;11909;52.516;13.564;2023-02-14T06:38:47;29.15;;;16.13;;
23472;SDS011;11909;52.516;13.564;2023-02-14T06:41:16;25.60;;;13.23;;
23472;SDS011;11909;52.516;13.564;2023-02-14T06:43:45;26.27;;;14.50;;
23472;SDS011;11909;52.516;13.564;2023-02-14T06:46:14;26.42;;;14.40;;
23472;SDS011;11909;52.516;13.564;2023-02-14T06:48:42;29.25;;;16.35;;
23472;SDS011;11909;52.516;13.564;2023-02-14T06:51:10;27.35;;;15.75;;
23472;SDS011;11909;52.516;13.564;2023-02-14T06:53:38;26.77;;;13.55;;
23472;SDS011;11909;52.516;13.564;2023-02-14T06:56:06;24.23;;;15.02;;
23472;SDS011;11909;52.516;13.564;2023-02-14T06:58:34;27.42;;;15.45;;
23472;SDS011;11909;52.516;13.564;2023-02-14T07:01:03;26.10;;;15.25;;
23472;SDS011;11909;52.516;13.564;2023-02-14T07:03:31;25.55;;;14.93;;
23472;SDS011;11909;52.516;13.564;2023-02-14T07:05:58;26.42;;;15.98;;
23472;SDS011;11909;52.516;13.564;2023-02-14T07:08:26;30.17;;;16.98;;
23472;SDS011;11909;52.516;13.564;2023-02-14T07:10:54;28.38;;;15.88;;
23472;SDS011;11909;52.516;13.564;2023-02-14T07:13:24;34.33;;;17.47;;
23472;SDS011;11909;52.516;13.564;2023-02-14T07:15:52;32.15;;;17.10;;
23472;SDS011;11909;52.516;13.564;2023-02-14T07:18:21;33.17;;;18.55;;
23472;SDS011;11909;52.516;13.564;2023-02-14T07:20:49;31.40;;;16.83;;
23472;SDS011;11909;52.516;13.564;2023-02-14T07:23:16;34.72;;;19.13;;
23472;SDS011;11909;52.516;13.564;2023-02-14T07:25:44;34.85;;;18.40;;
23472;SDS011;11909;52.516;13.564;2023-02-14T07:28:12;34.42;;;19.17;;
23472;SDS011;11909;52.516;13.564;2023-02-14T07:30:39;31.98;;;18.38;;
23472;SDS011;11909;52.516;13.564;2023-02-14T07:33:07;29.02;;;17.13;;
23472;SDS011;11909;52.516;13.564;2023-02-14T07:35:36;32.40;;;17.85;;
23472;SDS011;11909;52.516;13.564;2023-02-14T07:38:04;30.77;;;18.23;;
23472;SDS011;11909;52.516;13.564;2023-02-14T07:40:32;34.42;;;17.95;;
23472;SDS011;11909;52.516;13.564;2023-02-14T07:42:59;30.58;;;18.40;;
23472;SDS011;11909;52.516;13.564;2023-02-14T07:45:27;30.23;;;17.55;;
23472;SDS011;11909;52.516;13.564;2023-02-14T07:47:54;32.72;;;19.73;;
23472;SDS011;11909;52.516;13.564;2023-02-14T07:50:27;35.35;;;21.23;;
23472;SDS011;11909;52.516;13.564;2023-02-14T07:52:56;33.85;;;19.95;;
23472;SDS011;11909;52.516;13.564;2023-02-14T07:55:24;35.10;;;19.17;;
23472;SDS011;11909;52.516;13.564;2023-02-14T07:57:52;32.72;;;19.67;;
23472;SDS011;11909;52.516;13.564;2023-02-14T08:00:20;34.78;;;19.80;;
23472;SDS011;11909;52.516;13.564;2023-02-14T08:02:48;31.90;;;18.13;;
23472;SDS011;11909;52.516;13.564;2023-02-14T08:05:16;43.53;;;21.05;;
23472;SDS011;11909;52.516;13.564;2023-02-14T08:07:44;39.78;;;20.83;;
23472;SDS011;11909;52.516;13.564;2023-02-14T08:10:13;37.80;;;21.40;;
23472;SDS011;11909;52.516;13.564;2023-02-14T08:12:41;40.70;;;20.13;;
23472;SDS011;11909;52.516;13.564;2023-02-14T08:15:29;39.40;;;20.85;;
23472;SDS011;11909;52.516;13.564;2023-02-14T08:18:30;35.10;;;20.95;;
23472;SDS011;11909;52.516;13.564;2023-02-14T08:20:59;37.20;;;20.30;;
23472;SDS011;11909;52.516;13.564;2023-02-14T08:23:27;35.53;;;20.13;;
23472;SDS011;11909;52.516;13.564;2023-02-14T08:25:56;43.90;;;22.98;;
23472;SDS011;11909;52.516;13.564;2023-02-14T08:28:24;42.78;;;22.77;;
23472;SDS011;11909;52.516;13.564;2023-02-14T08:30:52;41.92;;;23.45;;
23472;SDS011;11909;52.516;13.564;2023-02-14T08:33:20;43.35;;;24.05;;
23472;SDS011;11909;52.516;13.564;2023-02-14T08:35:49;42.75;;;22.83;;
23472;SDS011;11909;52.516;13.564;2023-02-14T08:38:17;40.40;;;23.05;;
23472;SDS011;11909;52.516;13.564;2023-02-14T08:40:45;41.20;;;22.60;;
23472;SDS011;11909;52.516;13.564;2023-02-14T08:43:14;40.70;;;23.20;;
23472;SDS011;11909;52.516;13.564;2023-02-14T08:45:42;41.53;;;23.83;;
23472;SDS011;11909;52.516;13.564;2023-02-14T08:48:11;38.92;;;21.92;;
23472;SDS011;11909;52.516;13.564;2023-02-14T08:50:39;40.95;;;23.90;;
23472;SDS011;11909;52.516;13.564;2023-02-14T08:53:07;42.22;;;22.10;;
23472;SDS011;11909;52.516;13.564;2023-02-14T08:55:35;45.13;;;24.45;;
23472;SDS011;11909;52.516;13.564;2023-02-14T08:58:03;42.80;;;24.23;;
23472;SDS011;11909;52.516;13.564;2023-02-14T09:00:33;45.40;;;23.83;;
23472;SDS011;11909;52.516;13.564;2023-02-14T09:03:01;41.40;;;24.67;;
23472;SDS011;11909;52.516;13.564;2023-02-14T09:05:28;39.75;;;24.45;;
23472;SDS011;11909;52.516;13.564;2023-02-14T09:07:56;46.00;;;25.83;;
23472;SDS011;11909;52.516;13.564;2023-02-14T09:10:24;53.60;;;30.35;;
23472;SDS011;11909;52.516;13.564;2023-02-14T09:12:53;54.72;;;29.77;;
23472;SDS011;11909;52.516;13.564;2023-02-14T09:15:21;46.13;;;24.80;;
23472;SDS011;11909;52.516;13.564;2023-02-14T09:17:50;43.33;;;25.00;;
23472;SDS011;11909;52.516;13.564;2023-02-14T09:20:18;42.80;;;24.63;;
23472;SDS011;11909;52.516;13.564;2023-02-14T09:22:45;36.63;;;22.92;;
23472;SDS011;11909;52.516;13.564;2023-02-14T09:25:14;46.35;;;25.77;;
23472;SDS011;11909;52.516;13.564;2023-02-14T09:27:42;45.95;;;24.73;;
23472;SDS011;11909;52.516;13.564;2023-02-14T09:30:10;41.55;;;24.02;;
23472;SDS011;11909;52.516;13.564;2023-02-14T09:32:39;38.72;;;23.23;;
23472;SDS011;11909;52.516;13.564;2023-02-14T09:35:08;40.40;;;23.77;;
23472;SDS011;11909;52.516;13.564;2023-02-14T09:37:53;41.00;;;23.05;;
23472;SDS011;11909;52.516;13.564;2023-02-14T09:40:21;40.15;;;22.80;;
23472;SDS011;11909;52.516;13.564;2023-02-14T09:42:52;44.97;;;25.08;;
23472;SDS011;11909;52.516;13.564;2023-02-14T09:45:28;40.00;;;24.90;;
23472;SDS011;11909;52.516;13.564;2023-02-14T09:47:59;40.92;;;22.48;;
23472;SDS011;11909;52.516;13.564;2023-02-14T09:50:31;45.05;;;24.02;;
23472;SDS011;11909;52.516;13.564;2023-02-14T09:53:04;39.80;;;23.45;;
23472;SDS011;11909;52.516;13.564;2023-02-14T09:55:41;44.38;;;25.13;;
23472;SDS011;11909;52.516;13.564;2023-02-14T09:58:18;39.90;;;23.65;;
23472;SDS011;11909;52.516;13.564;2023-02-14T10:00:51;38.80;;;22.42;;
23472;SDS011;11909;52.516;13.564;2023-02-14T10:03:32;39.85;;;23.83;;
23472;SDS011;11909;52.516;13.564;2023-02-14T10:06:35;69.97;;;37.63;;
23472;SDS011;11909;52.516;13.564;2023-02-14T10:09:11;49.00;;;26.50;;
23472;SDS011;11909;52.516;13.564;2023-02-14T10:11:47;45.17;;;24.63;;
23472;SDS011;11909;52.516;13.564;2023-02-14T10:14:17;39.97;;;24.30;;
23472;SDS011;11909;52.516;13.564;2023-02-14T10:16:47;41.60;;;25.48;;
23472;SDS011;11909;52.516;13.564;2023-02-14T10:19:20;42.00;;;22.92;;
23472;SDS011;11909;52.516;13.564;2023-02-14T10:21:52;42.13;;;24.13;;
23472;SDS011;11909;52.516;13.564;2023-02-14T10:24:24;59.55;;;32.60;;
23472;SDS011;11909;52.516;13.564;2023-02-14T10:26:59;47.97;;;26.90;;
23472;SDS011;11909;52.516;13.564;2023-02-14T10:29:43;41.22;;;23.40;;
23472;SDS011;11909;52.516;13.564;2023-02-14T10:32:12;40.65;;;22.90;;
23472;SDS011;11909;52.516;13.564;2023-02-14T10:34:42;40.08;;;23.67;;
23472;SDS011;11909;52.516;13.564;2023-02-14T10:37:28;35.97;;;21.15;;
23472;SDS011;11909;52.516;13.564;2023-02-14T10:40:11;37.80;;;22.15;;
23472;SDS011;11909;52.516;13.564;2023-02-14T10:42:59;38.22;;;22.73;;
23472;SDS011;11909;52.516;13.564;2023-02-14T10:45:34;37.33;;;22.55;;
23472;SDS011;11909;52.516;13.564;2023-02-14T10:48:10;38.42;;;21.50;;
23472;SDS011;11909;52.516;13.564;2023-02-14T10:50:49;39.10;;;23.33;;
23472;SDS011;11909;52.516;13.564;2023-02-14T10:53:25;66.43;;;35.42;;
23472;SDS011;11909;52.516;13.564;2023-02-14T10:56:00;45.55;;;24.13;;
23472;SDS011;11909;52.516;13.564;2023-02-14T10:58:33;35.80;;;21.90;;
23472;SDS011;11909;52.516;13.564;2023-02-14T11:01:06;34.38;;;20.67;;
23472;SDS011;11909;52.516;13.564;2023-02-14T11:03:37;30.67;;;19.27;;
23472;SDS011;11909;52.516;13.564;2023-02-14T11:06:09;38.35;;;23.10;;
23472;SDS011;11909;52.516;13.564;2023-02-14T11:08:39;34.17;;;21.45;;
23472;SDS011;11909;52.516;13.564;2023-02-14T11:11:10;39.55;;;23.80;;
23472;SDS011;11909;52.516;13.564;2023-02-14T11:13:43;37.20;;;22.27;;
23472;SDS011;11909;52.516;13.564;2023-02-14T11:16:12;34.83;;;20.45;;
23472;SDS011;11909;52.516;13.564;2023-02-14T11:19:06;32.22;;;21.35;;
23472;SDS011;11909;52.516;13.564;2023-02-14T11:21:36;41.13;;;23.75;;
23472;SDS011;11909;52.516;13.564;2023-02-14T11:24:16;41.72;;;24.08;;
23472;SDS011;11909;52.516;13.564;2023-02-14T11:26:46;37.83;;;22.15;;
23472;SDS011;11909;52.516;13.564;2023-02-14T11:29:20;46.60;;;27.38;;
23472;SDS011;11909;52.516;13.564;2023-02-14T11:31:53;38.47;;;22.55;;
23472;SDS011;11909;52.516;13.564;2023-02-14T11:34:23;40.17;;;23.70;;
23472;SDS011;11909;52.516;13.564;2023-02-14T11:36:59;38.92;;;23.20;;
23472;SDS011;11909;52.516;13.564;2023-02-14T11:39:29;34.50;;;22.50;;
23472;SDS011;11909;52.516;13.564;2023-02-14T11:41:58;37.78;;;22.67;;
23472;SDS011;11909;52.516;13.564;2023-02-14T11:44:29;38.22;;;23.02;;
23472;SDS011;11909;52.516;13.564;2023-02-14T11:49:52;40.42;;;23.42;;
23472;SDS011;11909;52.516;13.564;2023-02-14T11:52:21;37.80;;;23.33;;
23472;SDS011;11909;52.516;13.564;2023-02-14T11:57:21;35.70;;;22.25;;
23472;SDS011;11909;52.516;13.564;2023-02-14T11:59:54;34.83;;;21.25;;
23472;SDS011;11909;52.516;13.564;2023-02-14T12:02:24;38.35;;;22.92;;
23472;SDS011;11909;52.516;13.564;2023-02-14T12:04:58;33.78;;;20.83;;
23472;SDS011;11909;52.516;13.564;2023-02-14T12:07:30;35.45;;;22.67;;
23472;SDS011;11909;52.516;13.564;2023-02-14T12:12:58;33.30;;;22.02;;
23472;SDS011;11909;52.516;13.564;2023-02-14T12:15:29;65.38;;;34.15;;
23472;SDS011;11909;52.516;13.564;2023-02-14T12:20:59;30.20;;;20.00;;
23472;SDS011;11909;52.516;13.564;2023-02-14T12:23:35;31.13;;;20.90;;
23472;SDS011;11909;52.516;13.564;2023-02-14T12:26:11;33.78;;;21.80;;
23472;SDS011;11909;52.516;13.564;2023-02-14T12:28:49;34.20;;;22.02;;
23472;SDS011;11909;52.516;13.564;2023-02-14T12:31:21;34.60;;;21.35;;
23472;SDS011;11909;52.516;13.564;2023-02-14T12:33:49;34.92;;;21.65;;
23472;SDS011;11909;52.516;13.564;2023-02-14T12:36:23;35.45;;;21.65;;
23472;SDS011;11909;52.516;13.564;2023-02-14T12:39:07;37.67;;;22.13;;
23472;SDS011;11909;52.516;13.564;2023-02-14T12:41:46;29.42;;;18.85;;
23472;SDS011;11909;52.516;13.564;2023-02-14T12:44:28;33.85;;;20.10;;
23472;SDS011;11909;52.516;13.564;2023-02-14T12:47:09;37.53;;;21.13;;
23472;SDS011;11909;52.516;13.564;2023-02-14T12:49:52;47.13;;;27.70;;
23472;SDS011;11909;52.516;13.564;2023-02-14T12:52:49;37.13;;;22.00;;
23472;SDS011;11909;52.516;13.564;2023-02-14T12:55:35;30.92;;;20.42;;
23472;SDS011;11909;52.516;13.564;2023-02-14T12:58:19;29.55;;;18.58;;
23472;SDS011;11909;52.516;13.564;2023-02-14T13:01:00;28.52;;;18.65;;
23472;SDS011;11909;52.516;13.564;2023-02-14T13:04:02;27.27;;;18.25;;
23472;SDS011;11909;52.516;13.564;2023-02-14T13:06:53;27.67;;;17.40;;
23472;SDS011;11909;52.516;13.564;2023-02-14T13:09:28;30.15;;;18.85;;
23472;SDS011;11909;52.516;13.564;2023-02-14T13:12:05;33.92;;;20.50;;
23472;SDS011;11909;52.516;13.564;2023-02-14T13:14:46;29.42;;;19.08;;
23472;SDS011;11909;52.516;13.564;2023-02-14T13:17:24;28.08;;;18.40;;
23472;SDS011;11909;52.516;13.564;2023-02-14T13:20:03;26.55;;;17.40;;
23472;SDS011;11909;52.516;13.564;2023-02-14T13:22:43;31.45;;;18.80;;
23472;SDS011;11909;52.516;13.564;2023-02-14T13:25:13;27.25;;;17.73;;
23472;SDS011;11909;52.516;13.564;2023-02-14T13:27:47;32.85;;;19.83;;
23472;SDS011;11909;52.516;13.564;2023-02-14T13:30:20;32.08;;;19.23;;
23472;SDS011;11909;52.516;13.564;2023-02-14T13:32:52;30.15;;;18.00;;
23472;SDS011;11909;52.516;13.564;2023-02-14T13:35:23;28.60;;;18.40;;
23472;SDS011;11909;52.516;13.564;2023-02-14T13:37:56;34.88;;;19.63;;
23472;SDS011;11909;52.516;13.564;2023-02-14T13:40:26;32.55;;;20.35;;
23472;SDS011;11909;52.516;13.564;2023-02-14T13:42:56;32.60;;;20.07;;
23472;SDS011;11909;52.516;13.564;2023-02-14T13:48:20;29.63;;;18.73;;
23472;SDS011;11909;52.516;13.564;2023-02-14T13:50:51;29.13;;;17.23;;
23472;SDS011;11909;52.516;13.564;2023-02-14T13:53:29;28.30;;;17.67;;
23472;SDS011;11909;52.516;13.564;2023-02-14T13:55:58;28.63;;;17.33;;
23472;SDS011;11909;52.516;13.564;2023-02-14T13:58:27;30.58;;;19.67;;
23472;SDS011;11909;52.516;13.564;2023-02-14T14:00:57;32.97;;;19.98;;
23472;SDS011;11909;52.516;13.564;2023-02-14T14:06:27;34.40;;;18.92;;
23472;SDS011;11909;52.516;13.564;2023-02-14T14:08:55;30.58;;;18.52;;
23472;SDS011;11909;52.516;13.564;2023-02-14T14:14:28;33.30;;;20.55;;
23472;SDS011;11909;52.516;13.564;2023-02-14T14:17:21;34.78;;;20.13;;
23472;SDS011;11909;52.516;13.564;2023-02-14T14:19:52;35.50;;;20.08;;
23472;SDS011;11909;52.516;13.564;2023-02-14T14:22:20;30.88;;;19.38;;
23472;SDS011;11909;52.516;13.564;2023-02-14T14:24:52;30.40;;;19.23;;
23472;SDS011;11909;52.516;13.564;2023-02-14T14:27:23;31.50;;;19.73;;
23472;SDS011;11909;52.516;13.564;2023-02-14T14:32:25;34.50;;;19.73;;
23472;SDS011;11909;52.516;13.564;2023-02-14T14:34:56;30.85;;;19.73;;
23472;SDS011;11909;52.516;13.564;2023-02-14T14:37:26;33.75;;;20.15;;
23472;SDS011;11909;52.516;13.564;2023-02-14T14:39:55;31.50;;;20.33;;
23472;SDS011;11909;52.516;13.564;2023-02-14T14:42:25;34.13;;;19.52;;
23472;SDS011;11909;52.516;13.564;2023-02-14T14:44:56;28.77;;;19.08;;
23472;SDS011;11909;52.516;13.564;2023-02-14T14:47:29;33.95;;;21.17;;
23472;SDS011;11909;52.516;13.564;2023-02-14T14:50:04;32.00;;;19.73;;
23472;SDS011;11909;52.516;13.564;2023-02-14T14:52:35;32.17;;;20.90;;
23472;SDS011;11909;52.516;13.564;2023-02-14T14:55:07;32.72;;;20.77;;
23472;SDS011;11909;52.516;13.564;2023-02-14T14:57:47;32.92;;;19.80;;
23472;SDS011;11909;52.516;13.564;2023-02-14T15:00:21;36.15;;;20.40;;
23472;SDS011;11909;52.516;13.564;2023-02-14T15:03:01;30.63;;;19.75;;
23472;SDS011;11909;52.516;13.564;2023-02-14T15:05:32;30.92;;;20.23;;
23472;SDS011;11909;52.516;13.564;2023-02-14T15:10:43;31.33;;;18.98;;
23472;SDS011;11909;52.516;13.564;2023-02-14T15:13:15;31.88;;;19.50;;
23472;SDS011;11909;52.516;13.564;2023-02-14T15:16:01;31.40;;;18.75;;